Time;durP1;ratioP1;P1;durP2;ratioP2;P2;SDS_P1;SDS_P2;PMS_P1;PMS_P2;Temp;Humidity;BMP_temperature;BMP_pressure;BME280_temperature;BME280_humidity;BME280_pressure;Samples;Min_cycle;Max_cycle;Signal;HPM_P1;HPM_P2
2023/02/20 00:00:15;;;;;;;3.17;1.93;;;;;;;-1.10;100.00;101495.34;5022781;28;20288;-72
2023/02/20 00:02:43;;;;;;;3.20;1.73;;;;;;;-1.07;100.00;101497.13;5019629;28;20255;-72
2023/02/20 00:05:12;;;;;;;3.67;2.27;;;;;;;-1.09;100.00;101494.53;5022533;28;20226;-72
2023/02/20 00:07:38;;;;;;;6.23;2.23;;;;;;;-1.13;100.00;101495.22;5024684;28;20227;-72
2023/02/20 00:10:07;;;;;;;3.27;2.00;;;;;;;-1.17;100.00;101483.16;5028404;28;20641;-72
2023/02/20 00:12:33;;;;;;;5.27;2.33;;;;;;;-1.18;100.00;101478.81;5025609;28;20196;-71
2023/02/20 00:14:59;;;;;;;3.97;2.03;;;;;;;-1.25;100.00;101469.19;5023354;28;20221;-72
2023/02/20 00:17:28;;;;;;;4.03;2.43;;;;;;;-1.31;100.00;101467.28;5023729;28;20201;-72
2023/02/20 00:19:54;;;;;;;4.17;2.17;;;;;;;-1.39;100.00;101459.34;5017211;28;20303;-72
2023/02/20 00:22:21;;;;;;;5.57;1.73;;;;;;;-1.42;100.00;101454.13;5018723;28;20200;-72
2023/02/20 00:24:48;;;;;;;2.70;2.20;;;;;;;-1.47;100.00;101468.44;5026211;28;20231;-72
2023/02/20 00:27:15;;;;;;;3.37;2.40;;;;;;;-1.48;100.00;101461.56;5021066;28;20203;-72
2023/02/20 00:29:41;;;;;;;3.83;1.67;;;;;;;-1.53;100.00;101468.19;5023222;28;20195;-71
2023/02/20 00:32:07;;;;;;;5.57;2.23;;;;;;;-1.54;100.00;101471.59;5016386;28;20200;-72
2023/02/20 00:34:35;;;;;;;2.73;1.80;;;;;;;-1.56;100.00;101468.09;5013782;28;20219;-72
2023/02/20 00:37:02;;;;;;;4.03;2.03;;;;;;;-1.62;100.00;101467.84;5029905;28;20200;-72
2023/02/20 00:39:28;;;;;;;2.80;1.97;;;;;;;-1.67;100.00;101470.25;5029123;28;20231;-71
2023/02/20 00:41:56;;;;;;;6.17;2.23;;;;;;;-1.74;100.00;101455.50;5027077;28;20207;-73
2023/02/20 00:44:22;;;;;;;2.20;2.00;;;;;;;-1.76;100.00;101445.22;5021097;28;20305;-73
2023/02/20 00:46:49;;;;;;;3.53;2.23;;;;;;;-1.81;100.00;101439.06;5027373;28;20259;-72
2023/02/20 00:49:16;;;;;;;8.90;2.43;;;;;;;-1.76;100.00;101434.09;5031758;28;20196;-72
2023/02/20 00:51:47;;;;;;;2.63;2.37;;;;;;;-1.74;100.00;101417.16;5023932;28;20323;-72
2023/02/20 00:54:13;;;;;;;4.80;2.57;;;;;;;-1.73;100.00;101412.06;5025223;28;20279;-72
2023/02/20 00:56:40;;;;;;;4.67;2.27;;;;;;;-1.73;100.00;101412.06;5043433;28;20218;-71
2023/02/20 00:59:07;;;;;;;4.37;2.30;;;;;;;-1.72;100.00;101408.72;5028926;28;20240;-75
2023/02/20 01:01:33;;;;;;;6.87;2.57;;;;;;;-1.73;100.00;101414.63;5029128;28;20203;-75
2023/02/20 01:04:00;;;;;;;3.80;2.43;;;;;;;-1.75;100.00;101406.03;5023789;28;20208;-75
2023/02/20 01:06:28;;;;;;;4.67;2.57;;;;;;;-1.76;100.00;101409.44;5023706;28;20212;-75
2023/02/20 01:08:58;;;;;;;4.47;2.60;;;;;;;-1.76;100.00;101405.97;5027321;28;20200;-75
2023/02/20 01:11:25;;;;;;;7.80;2.53;;;;;;;-1.80;100.00;101410.09;5025949;28;20669;-75
2023/02/20 01:13:52;;;;;;;9.17;2.80;;;;;;;-1.85;100.00;101414.19;5025511;28;20750;-75
2023/02/20 01:16:18;;;;;;;4.53;2.77;;;;;;;-1.82;100.00;101416.84;5024099;28;20223;-72
2023/02/20 01:18:45;;;;;;;4.20;2.27;;;;;;;-1.77;100.00;101417.91;5020728;28;20223;-72
2023/02/20 01:21:11;;;;;;;3.73;2.70;;;;;;;-1.80;100.00;101422.88;5025796;28;20200;-72
2023/02/20 01:23:37;;;;;;;2.73;2.17;;;;;;;-1.83;100.00;101419.34;5024715;28;20594;-75
2023/02/20 01:26:05;;;;;;;4.47;2.90;;;;;;;-1.81;100.00;101422.81;5024212;28;20212;-75
2023/02/20 01:28:32;;;;;;;7.63;3.10;;;;;;;-1.83;100.00;101412.56;5023807;28;20254;-75
2023/02/20 01:30:58;;;;;;;3.70;2.60;;;;;;;-1.84;100.00;101415.94;5027828;28;20575;-75
2023/02/20 01:33:25;;;;;;;4.63;2.33;;;;;;;-1.83;100.00;101404.91;5024501;28;20248;-75
2023/02/20 01:35:52;;;;;;;6.27;2.83;;;;;;;-1.88;100.00;101408.97;5023910;28;20561;-75
2023/02/20 01:38:21;;;;;;;9.87;2.57;;;;;;;-1.92;100.00;101401.97;5021531;28;20239;-75
2023/02/20 01:40:49;;;;;;;5.00;3.00;;;;;;;-1.92;100.00;101402.88;5024546;28;20215;-75
2023/02/20 01:43:17;;;;;;;4.97;2.63;;;;;;;-1.94;100.00;101393.38;5028097;28;20210;-75
2023/02/20 01:45:44;;;;;;;5.23;2.87;;;;;;;-1.96;100.00;101378.00;5014573;28;20577;-75
2023/02/20 01:48:20;;;;;;;11.23;3.30;;;;;;;-1.95;100.00;101369.53;5014503;28;20227;-75
2023/02/20 01:50:52;;;;;;;9.17;2.50;;;;;;;-1.97;100.00;101363.50;5019813;28;20666;-75
2023/02/20 01:53:23;;;;;;;6.50;3.60;;;;;;;-1.97;100.00;101360.94;5033409;28;20223;-75
2023/02/20 01:55:53;;;;;;;7.07;2.83;;;;;;;-1.97;100.00;101358.38;5025317;28;20588;-75
2023/02/20 01:58:25;;;;;;;8.83;3.07;;;;;;;-1.97;100.00;101362.59;5028819;28;20218;-75
2023/02/20 02:00:52;;;;;;;7.97;2.90;;;;;;;-1.93;100.00;101351.69;5043441;28;20214;-73
2023/02/20 02:03:23;;;;;;;6.90;3.20;;;;;;;-1.90;100.00;101349.22;5026409;28;20199;-75
2023/02/20 02:05:53;;;;;;;4.07;3.10;;;;;;;-1.84;100.00;101346.03;5027816;28;20589;-75
2023/02/20 02:08:23;;;;;;;7.47;2.73;;;;;;;-1.79;100.00;101355.63;5028734;28;20881;-75
2023/02/20 02:10:57;;;;;;;5.07;3.37;;;;;;;-1.73;100.00;101355.81;5041076;28;20258;-75
2023/02/20 02:13:24;;;;;;;8.67;3.10;;;;;;;-1.65;100.00;101335.66;5022855;28;20295;-75
2023/02/20 02:16:08;;;;;;;6.10;2.97;;;;;;;-1.59;100.00;101324.75;5014244;28;20225;-75
2023/02/20 02:18:51;;;;;;;7.03;3.00;;;;;;;-1.52;100.00;101317.34;5021421;28;20628;-75
2023/02/20 02:21:56;;;;;;;5.87;3.40;;;;;;;-1.45;100.00;101312.44;5025725;28;20203;-75
2023/02/20 02:24:40;;;;;;;4.40;2.90;;;;;;;-1.39;100.00;101308.41;5013161;28;20319;-75
2023/02/20 02:27:31;;;;;;;5.53;2.90;;;;;;;-1.34;100.00;101303.44;5021037;28;20223;-75
2023/02/20 02:30:46;;;;;;;5.07;3.23;;;;;;;-1.29;100.00;101298.47;5019440;28;20198;-74
2023/02/20 02:33:41;;;;;;;5.77;3.20;;;;;;;-1.23;100.00;101285.88;5028032;28;20188;-75
2023/02/20 02:36:27;;;;;;;5.23;3.50;;;;;;;-1.20;100.00;101294.50;5020237;28;20236;-75
2023/02/20 02:39:00;;;;;;;6.00;3.10;;;;;;;-1.18;100.00;101289.44;5025478;28;20192;-75
2023/02/20 02:41:42;;;;;;;4.97;3.23;;;;;;;-1.14;100.00;101288.75;5021685;28;20260;-75
2023/02/20 02:44:15;;;;;;;4.33;3.20;;;;;;;-1.08;100.00;101276.13;5022998;28;20568;-73
2023/02/20 02:46:47;;;;;;;6.33;3.60;;;;;;;-1.05;100.00;101281.34;5017567;28;20213;-72
2023/02/20 02:49:20;;;;;;;5.87;3.23;;;;;;;-1.00;100.00;101281.50;5022579;28;20707;-73
2023/02/20 02:51:50;;;;;;;7.23;3.87;;;;;;;-0.96;100.00;101284.19;5016076;28;20204;-72
2023/02/20 02:54:21;;;;;;;5.77;3.57;;;;;;;-0.90;100.00;101285.22;5028233;28;20231;-72
2023/02/20 02:56:48;;;;;;;5.60;3.93;;;;;;;-0.88;100.00;101287.00;5021532;28;20208;-72
2023/02/20 02:59:20;;;;;;;9.97;3.77;;;;;;;-0.83;100.00;101287.13;5019287;28;20629;-72
2023/02/20 03:01:51;;;;;;;7.17;4.10;;;;;;;-0.80;100.00;101275.28;5032388;28;20209;-72
2023/02/20 03:04:22;;;;;;;7.33;3.93;;;;;;;-0.75;100.00;101272.03;5021357;28;20249;-72
2023/02/20 03:06:55;;;;;;;5.87;3.93;;;;;;;-0.70;100.00;101267.88;5029097;28;20299;-73
2023/02/20 03:09:26;;;;;;;5.27;3.97;;;;;;;-0.71;100.00;101259.34;5028399;28;20200;-73
2023/02/20 03:11:55;;;;;;;7.00;4.30;;;;;;;-0.68;100.00;101256.88;5022314;28;20798;-72
2023/02/20 03:17:19;;;;;;;9.17;4.13;;;;;;;-0.47;100.00;101255.78;5022110;28;20295;-73
2023/02/20 03:19:48;;;;;;;11.67;5.27;;;;;;;-0.40;100.00;101250.00;5046415;28;20330;-73
2023/02/20 03:22:21;;;;;;;7.47;4.73;;;;;;;-0.33;100.00;101256.19;5021559;28;20215;-73
2023/02/20 03:24:57;;;;;;;8.07;4.67;;;;;;;-0.29;100.00;101258.84;5016619;28;20324;-73
2023/02/20 03:27:39;;;;;;;8.03;4.30;;;;;;;-0.22;100.00;101265.03;5030605;28;20261;-72
2023/02/20 03:30:14;;;;;;;8.73;4.57;;;;;;;-0.16;100.00;101259.19;5015135;28;20210;-72
2023/02/20 03:43:58;;;;;;;11.30;5.30;;;;;;;0.08;100.00;101244.47;5017952;28;20279;-73
2023/02/20 03:46:27;;;;;;;7.43;4.80;;;;;;;0.11;100.00;101246.28;5024472;28;20216;-72
2023/02/20 03:48:58;;;;;;;7.50;4.50;;;;;;;0.17;100.00;101238.72;5021053;28;20672;-73
2023/02/20 03:51:26;;;;;;;8.17;5.23;;;;;;;0.20;100.00;101241.38;5025104;28;20597;-73
2023/02/20 03:54:01;;;;;;;9.33;5.23;;;;;;;0.26;100.00;101245.81;5013361;28;20192;-73
2023/02/20 03:56:32;;;;;;;6.90;4.70;;;;;;;0.29;100.00;101241.63;5018697;28;20196;-73
2023/02/20 03:59:06;;;;;;;7.57;4.97;;;;;;;0.35;100.00;101244.34;5038233;28;20238;-72
2023/02/20 04:01:36;;;;;;;8.23;5.80;;;;;;;0.36;100.00;101233.25;5022249;28;20677;-73
2023/02/20 04:04:05;;;;;;;10.10;5.00;;;;;;;0.48;100.00;101242.09;5016639;28;20207;-72
2023/02/20 04:06:35;;;;;;;11.57;5.37;;;;;;;0.49;100.00;101242.13;5026400;28;20246;-71
2023/02/20 04:09:07;;;;;;;10.23;5.17;;;;;;;0.51;100.00;101234.44;5027288;28;20256;-73
2023/02/20 04:11:40;;;;;;;10.20;5.00;;;;;;;0.59;100.00;101211.56;5022857;28;20191;-71
2023/02/20 04:14:09;;;;;;;10.07;5.50;;;;;;;0.67;100.00;101202.31;5023851;28;20205;-72
2023/02/20 04:16:43;;;;;;;12.73;5.90;;;;;;;0.69;100.00;101204.13;5025836;28;20275;-73
2023/02/20 04:19:10;;;;;;;7.57;5.07;;;;;;;0.74;100.00;101206.81;5024121;28;20196;-72
2023/02/20 04:21:41;;;;;;;8.83;5.10;;;;;;;0.80;100.00;101209.50;5022116;28;20231;-72
2023/02/20 04:24:15;;;;;;;10.90;4.93;;;;;;;0.85;100.00;101210.47;5023524;28;20795;-72
2023/02/20 04:26:41;;;;;;;9.73;5.23;;;;;;;0.91;100.00;101220.88;5024930;28;20218;-72
2023/02/20 04:29:08;;;;;;;9.27;5.30;;;;;;;0.98;100.00;101221.03;5016346;28;20199;-72
2023/02/20 04:31:35;;;;;;;8.07;4.90;;;;;;;1.02;100.00;101226.28;5019117;28;20724;-71
2023/02/20 04:34:02;;;;;;;7.27;4.77;;;;;;;1.05;100.00;101228.03;5015589;28;20307;-73
2023/02/20 04:36:28;;;;;;;7.43;5.03;;;;;;;1.10;100.00;101229.00;5023402;28;20250;-72
2023/02/20 04:38:57;;;;;;;8.40;4.70;;;;;;;1.15;100.00;101227.41;5024179;28;20200;-71
2023/02/20 04:41:30;;;;;;;6.67;4.70;;;;;;;1.24;100.00;101224.16;5016422;28;20209;-72
2023/02/20 04:46:37;;;;;;;8.67;4.67;;;;;;;1.30;100.00;101208.88;5021716;28;20225;-71
2023/02/20 04:49:03;;;;;;;9.90;5.67;;;;;;;1.34;100.00;101200.41;5022330;28;20208;-72
2023/02/20 04:51:29;;;;;;;8.53;4.83;;;;;;;1.37;100.00;101197.03;5017394;28;20205;-72
2023/02/20 04:53:56;;;;;;;9.83;4.97;;;;;;;1.40;100.00;101187.66;5014896;28;20617;-73
2023/02/20 04:56:23;;;;;;;8.77;5.37;;;;;;;1.43;100.00;101179.19;5026811;28;20196;-73
2023/02/20 04:58:50;;;;;;;9.23;5.10;;;;;;;1.49;100.00;101175.00;5022564;28;20669;-73
2023/02/20 05:01:20;;;;;;;8.20;5.07;;;;;;;1.52;100.00;101169.94;5024763;28;20655;-73
2023/02/20 05:03:46;;;;;;;8.97;4.83;;;;;;;1.55;100.00;101179.41;5021261;28;20202;-72
2023/02/20 05:06:13;;;;;;;7.83;5.17;;;;;;;1.55;100.00;101174.28;5023338;28;20220;-72
2023/02/20 05:08:39;;;;;;;7.90;4.60;;;;;;;1.59;100.00;101172.63;5017714;28;20205;-73
2023/02/20 05:11:07;;;;;;;8.47;4.53;;;;;;;1.61;100.00;101158.97;5016981;28;20584;-72
2023/02/20 05:13:33;;;;;;;8.43;4.37;;;;;;;1.66;100.00;101153.91;5023268;28;20245;-72
2023/02/20 05:16:03;;;;;;;7.43;4.80;;;;;;;1.70;100.00;101158.25;5022120;28;20224;-73
2023/02/20 05:18:30;;;;;;;7.87;4.77;;;;;;;1.78;100.00;101154.16;5023515;28;20945;-72
2023/02/20 05:23:41;;;;;;;10.33;5.20;;;;;;;1.89;100.00;101150.03;5022160;28;20204;-72
2023/02/20 05:26:09;;;;;;;6.57;4.50;;;;;;;1.97;100.00;101145.06;5016177;28;20580;-72
2023/02/20 05:28:36;;;;;;;7.97;5.00;;;;;;;1.99;100.00;101134.81;5017643;28;20658;-72
2023/02/20 05:31:03;;;;;;;7.70;5.07;;;;;;;2.02;100.00;101122.84;5014472;28;20196;-72
2023/02/20 05:33:30;;;;;;;9.77;4.93;;;;;;;2.10;100.00;101125.53;5016473;28;20231;-72
2023/02/20 05:35:56;;;;;;;9.07;5.20;;;;;;;2.13;100.00;101124.72;5016773;28;20712;-71
2023/02/20 05:38:22;;;;;;;9.10;5.17;;;;;;;2.15;100.00;101120.50;5017339;28;20224;-73
2023/02/20 05:40:49;;;;;;;9.33;5.47;;;;;;;2.15;100.00;101113.63;5019707;28;20700;-73
2023/02/20 05:43:16;;;;;;;8.10;4.80;;;;;;;2.16;100.00;101114.47;5022373;28;20762;-72
2023/02/20 05:45:42;;;;;;;7.50;5.00;;;;;;;2.21;100.00;101113.72;5018165;28;20290;-73
2023/02/20 05:48:11;;;;;;;7.47;4.80;;;;;;;2.20;100.00;101106.84;5023079;28;20204;-73
2023/02/20 05:50:37;;;;;;;9.10;5.60;;;;;;;2.29;100.00;101093.25;5016282;28;20668;-73
2023/02/20 05:53:06;;;;;;;8.53;5.37;;;;;;;2.31;100.00;101091.56;5017058;28;20188;-72
2023/02/20 05:55:32;;;;;;;9.03;4.73;;;;;;;2.34;100.00;101090.75;5018900;28;20266;-73
2023/02/20 05:57:59;;;;;;;6.97;4.77;;;;;;;2.41;100.00;101079.69;5021783;28;20503;-72
2023/02/20 06:00:26;;;;;;;7.87;5.10;;;;;;;2.45;100.00;101084.91;5022895;28;20207;-73
2023/02/20 06:02:52;;;;;;;7.97;5.07;;;;;;;2.50;100.00;101072.13;5015514;28;20282;-73
2023/02/20 06:05:20;;;;;;;8.23;5.00;;;;;;;2.56;100.00;101073.91;5016021;28;20601;-72
2023/02/20 06:07:47;;;;;;;8.60;4.90;;;;;;;2.54;100.00;101068.75;5015121;28;20297;-72
2023/02/20 06:10:15;;;;;;;9.77;5.70;;;;;;;2.60;100.00;101068.84;5014123;28;20208;-73
2023/02/20 06:12:41;;;;;;;10.43;5.70;;;;;;;2.64;100.00;101068.03;5014300;28;20200;-72
2023/02/20 06:15:08;;;;;;;9.03;5.50;;;;;;;2.69;100.00;101059.47;5023634;28;20753;-73
2023/02/20 06:17:35;;;;;;;7.47;5.30;;;;;;;2.73;100.00;101053.56;5026349;28;20211;-72
2023/02/20 06:20:01;;;;;;;8.90;5.67;;;;;;;2.78;100.00;101063.06;5025606;28;20195;-72
2023/02/20 06:22:29;;;;;;;8.60;5.13;;;;;;;2.81;100.00;101052.81;5020516;28;20233;-73
2023/02/20 06:24:55;;;;;;;8.63;5.10;;;;;;;2.85;100.00;101051.13;5029020;28;20242;-72
2023/02/20 06:27:21;;;;;;;11.00;5.03;;;;;;;2.89;100.00;101049.47;5027415;28;20204;-72
2023/02/20 06:29:48;;;;;;;10.30;5.83;;;;;;;2.94;100.00;101045.22;5020273;28;20708;-73
2023/02/20 06:32:15;;;;;;;6.87;4.83;;;;;;;2.96;100.00;101043.53;5022995;28;20343;-73
2023/02/20 06:34:44;;;;;;;8.60;5.47;;;;;;;2.99;100.00;101053.84;5025672;28;20720;-73
2023/02/20 06:37:10;;;;;;;8.33;4.83;;;;;;;3.04;100.00;101052.19;5015925;28;20204;-72
2023/02/20 06:39:38;;;;;;;8.53;5.43;;;;;;;3.10;100.00;101054.00;5029301;28;20207;-72
2023/02/20 06:42:05;;;;;;;16.57;5.20;;;;;;;3.15;100.00;101042.00;5024573;28;20224;-72
2023/02/20 06:44:32;;;;;;;8.53;5.37;;;;;;;3.19;100.00;101041.22;5017555;28;20223;-72
2023/02/20 06:47:00;;;;;;;10.73;5.83;;;;;;;3.26;100.00;101048.16;5030215;28;21038;-72
2023/02/20 06:49:30;;;;;;;8.87;5.57;;;;;;;3.27;100.00;101052.44;5023186;28;20212;-72
2023/02/20 06:51:56;;;;;;;10.37;5.87;;;;;;;3.35;100.00;101042.22;5022636;28;20202;-72
2023/02/20 06:54:22;;;;;;;10.03;5.53;;;;;;;3.38;100.00;101039.69;5023573;28;20807;-72
2023/02/20 06:56:51;;;;;;;8.97;5.57;;;;;;;3.43;100.00;101030.28;5023023;28;20593;-72
2023/02/20 06:59:17;;;;;;;9.90;5.47;;;;;;;3.47;100.00;101026.03;5026106;28;20716;-72
2023/02/20 07:01:44;;;;;;;9.57;5.90;;;;;;;3.54;100.00;101040.69;5021073;28;20212;-72
2023/02/20 07:04:16;;;;;;;10.83;6.17;;;;;;;3.59;100.00;101027.00;5019409;28;20398;-72
2023/02/20 07:06:44;;;;;;;12.73;7.00;;;;;;;3.63;100.00;101022.72;5018335;28;20851;-72
2023/02/20 07:09:10;;;;;;;13.33;6.03;;;;;;;3.66;100.00;101025.34;5028961;28;20547;-72
2023/02/20 07:11:36;;;;;;;20.27;11.90;;;;;;;3.72;100.00;101040.00;5018551;28;20252;-72
2023/02/20 07:14:04;;;;;;;19.90;9.63;;;;;;;3.79;100.00;101034.03;5022314;28;20208;-72
2023/02/20 07:16:31;;;;;;;11.40;6.67;;;;;;;3.83;100.00;101038.34;5028578;28;20217;-72
2023/02/20 07:18:57;;;;;;;12.67;7.13;;;;;;;3.86;100.00;101037.53;5021991;28;20211;-72
2023/02/20 07:21:24;;;;;;;10.90;6.33;;;;;;;3.93;100.00;101037.59;5024872;28;20208;-72
2023/02/20 07:23:50;;;;;;;11.13;6.50;;;;;;;4.01;100.00;101026.47;5024145;28;20604;-72
2023/02/20 07:26:18;;;;;;;10.93;6.37;;;;;;;4.06;100.00;101027.34;5018554;28;20224;-72
2023/02/20 07:28:45;;;;;;;13.30;6.20;;;;;;;4.17;100.00;101023.16;5021492;28;20204;-72
2023/02/20 07:31:12;;;;;;;8.73;5.67;;;;;;;4.21;100.00;101011.13;5022233;28;20205;-72
2023/02/20 07:33:41;;;;;;;10.33;6.00;;;;;;;4.22;100.00;101003.41;5026980;28;20192;-72
2023/02/20 07:36:08;;;;;;;12.87;7.23;;;;;;;4.31;100.00;101000.84;5018789;28;20620;-72
2023/02/20 07:38:35;;;;;;;11.00;5.90;;;;;;;4.38;100.00;101008.63;5023144;28;20205;-72
2023/02/20 07:41:01;;;;;;;9.67;5.67;;;;;;;4.44;100.00;101008.66;5020385;28;20218;-72
2023/02/20 07:43:28;;;;;;;9.90;6.07;;;;;;;4.50;100.00;100982.88;5017126;28;20829;-72
2023/02/20 07:45:54;;;;;;;7.57;5.20;;;;;;;4.55;100.00;101007.84;5020307;28;20289;-72
2023/02/20 07:48:22;;;;;;;8.27;4.77;;;;;;;4.64;100.00;101011.34;5021247;28;20220;-72
2023/02/20 07:50:48;;;;;;;9.80;4.97;;;;;;;4.64;100.00;100999.28;5020351;28;20204;-72
2023/02/20 07:53:17;;;;;;;7.47;4.43;;;;;;;4.63;100.00;101005.31;5021242;28;20275;-72
2023/02/20 07:55:43;;;;;;;9.53;4.30;;;;;;;4.63;100.00;101013.06;5018659;28;20735;-72
2023/02/20 07:58:10;;;;;;;9.70;4.50;;;;;;;4.63;100.00;100994.13;5024032;28;20214;-72
2023/02/20 08:00:36;;;;;;;5.90;3.93;;;;;;;4.64;100.00;100952.78;5021496;28;20204;-72
2023/02/20 08:03:03;;;;;;;6.97;3.90;;;;;;;4.70;100.00;100947.66;5018722;28;20208;-72
2023/02/20 08:05:31;;;;;;;6.23;3.77;;;;;;;4.77;100.00;100971.78;5021279;28;20231;-72
2023/02/20 08:07:57;;;;;;;4.87;3.20;;;;;;;4.83;100.00;100979.53;5019428;28;20192;-72
2023/02/20 08:10:27;;;;;;;7.10;4.00;;;;;;;4.91;100.00;100982.19;5023158;28;20265;-72
2023/02/20 08:12:55;;;;;;;6.50;3.43;;;;;;;4.96;100.00;100951.16;5022631;28;20197;-72
2023/02/20 08:15:22;;;;;;;8.17;5.43;;;;;;;5.00;100.00;100978.75;5017857;28;20224;-72
2023/02/20 08:17:49;;;;;;;5.80;3.93;;;;;;;5.03;100.00;100989.97;5023654;28;20197;-72
2023/02/20 08:20:17;;;;;;;5.33;3.40;;;;;;;5.11;100.00;100985.66;5020464;28;20196;-72
2023/02/20 08:22:45;;;;;;;7.10;3.43;;;;;;;5.18;100.00;100980.50;5010952;28;20258;-72
2023/02/20 08:25:12;;;;;;;4.70;3.20;;;;;;;5.25;100.00;100984.81;5039138;28;20224;-72
2023/02/20 08:27:42;;;;;;;6.27;4.17;;;;;;;5.30;100.00;100960.69;5034400;28;20204;-72
2023/02/20 08:30:12;;;;;;;4.83;3.10;;;;;;;5.41;100.00;100957.25;5022170;28;20277;-72
2023/02/20 08:32:38;;;;;;;4.23;2.93;;;;;;;5.50;100.00;100946.91;5018412;28;20196;-72
2023/02/20 08:35:05;;;;;;;5.07;3.30;;;;;;;5.58;100.00;100952.09;5021534;28;20228;-72
2023/02/20 08:37:31;;;;;;;6.07;3.43;;;;;;;5.64;100.00;100945.16;5020306;28;20222;-72
2023/02/20 08:40:00;;;;;;;5.20;3.37;;;;;;;5.65;100.00;100935.72;5018002;28;20196;-72
2023/02/20 08:42:28;;;;;;;5.27;3.17;;;;;;;5.64;100.00;100910.69;5026541;28;20223;-72
2023/02/20 08:44:54;;;;;;;4.37;2.67;;;;;;;5.62;100.00;100930.53;5016973;28;20709;-72
2023/02/20 08:47:22;;;;;;;4.40;2.90;;;;;;;5.60;100.00;100925.34;5019229;28;20211;-72
2023/02/20 08:49:49;;;;;;;3.67;2.37;;;;;;;5.60;100.00;100933.09;5016730;28;20208;-72
2023/02/20 08:52:15;;;;;;;5.33;3.03;;;;;;;5.60;100.00;100933.09;5024951;28;20196;-72
2023/02/20 08:54:45;;;;;;;4.03;2.70;;;;;;;5.58;100.00;100908.97;5034811;28;20224;-72
2023/02/20 08:57:13;;;;;;;4.73;2.70;;;;;;;5.56;100.00;100902.94;5022623;28;20212;-72
2023/02/20 08:59:39;;;;;;;3.73;2.23;;;;;;;5.58;100.00;100884.84;5013938;28;20223;-72
2023/02/20 09:02:06;;;;;;;2.83;2.03;;;;;;;5.59;100.00;100889.97;5019996;28;20208;-72
2023/02/20 09:04:33;;;;;;;3.77;2.53;;;;;;;5.58;100.00;100895.19;5020622;28;20219;-72
2023/02/20 09:06:59;;;;;;;4.63;2.63;;;;;;;5.59;100.00;100895.16;5020235;28;20283;-72
2023/02/20 09:09:25;;;;;;;4.30;2.90;;;;;;;5.60;100.00;100896.91;5035661;28;20653;-72
2023/02/20 09:11:52;;;;;;;4.00;2.50;;;;;;;5.60;100.00;100890.88;5013419;28;20196;-72
2023/02/20 09:14:20;;;;;;;3.67;2.40;;;;;;;5.63;100.00;100890.88;5020586;28;20677;-72
2023/02/20 09:16:46;;;;;;;2.80;2.20;;;;;;;5.64;100.00;100879.66;5018206;28;20569;-72
2023/02/20 09:19:14;;;;;;;5.13;3.30;;;;;;;5.63;100.00;100863.28;5018643;28;20850;-72
2023/02/20 09:21:40;;;;;;;3.90;2.80;;;;;;;5.65;100.00;100861.53;5021076;28;20265;-72
2023/02/20 09:24:07;;;;;;;3.00;2.17;;;;;;;5.68;100.00;100864.13;5019024;28;20250;-72
2023/02/20 09:26:33;;;;;;;3.70;2.67;;;;;;;5.69;100.00;100846.88;5025809;28;20195;-72
2023/02/20 09:29:00;;;;;;;3.43;2.60;;;;;;;5.72;100.00;100846.88;5017447;28;20211;-72
2023/02/20 09:31:27;;;;;;;3.67;2.80;;;;;;;5.73;100.00;100845.97;5019357;28;20359;-72
2023/02/20 09:33:54;;;;;;;3.03;2.60;;;;;;;5.74;100.00;100844.28;5020267;28;20214;-72
2023/02/20 09:36:20;;;;;;;4.17;2.63;;;;;;;5.77;100.00;100852.88;5020514;28;20669;-72
2023/02/20 09:38:47;;;;;;;5.93;3.17;;;;;;;5.81;100.00;100851.16;5019112;28;20200;-72
2023/02/20 09:41:25;;;;;;;3.70;2.67;;;;;;;5.84;100.00;100849.41;5014603;28;20208;-72
2023/02/20 09:43:59;;;;;;;4.70;2.80;;;;;;;5.87;100.00;100833.00;5018842;28;20203;-72
2023/02/20 09:46:27;;;;;;;3.27;2.87;;;;;;;5.91;100.00;100837.31;5013236;28;20203;-72
2023/02/20 09:49:11;;;;;;;4.17;2.60;;;;;;;5.94;100.00;100833.84;5019385;28;20566;-72
2023/02/20 09:51:41;;;;;;;3.20;2.47;;;;;;;6.00;100.00;100819.19;5021476;28;20204;-72
2023/02/20 09:54:12;;;;;;;4.97;3.10;;;;;;;6.04;100.00;100818.31;5013002;28;20227;-72
2023/02/20 09:56:44;;;;;;;4.00;3.13;;;;;;;6.11;100.00;100811.38;5017151;28;20197;-72
2023/02/20 09:59:15;;;;;;;4.17;3.03;;;;;;;6.13;100.00;100798.44;5016413;28;20208;-72
2023/02/20 10:01:55;;;;;;;4.33;2.80;;;;;;;6.16;100.00;100809.63;5015491;28;20216;-72
2023/02/20 10:04:27;;;;;;;4.63;2.70;;;;;;;6.20;100.00;100797.53;5018139;28;20229;-72
2023/02/20 10:07:00;;;;;;;3.73;2.90;;;;;;;6.24;100.00;100799.22;5016250;28;20203;-72
2023/02/20 10:09:27;;;;;;;5.00;3.70;;;;;;;6.28;100.00;100798.34;5017792;28;20211;-72
2023/02/20 10:12:10;;;;;;;3.90;2.80;;;;;;;6.35;100.00;100796.56;5017318;28;20227;-72
2023/02/20 10:15:03;;;;;;;3.40;3.00;;;;;;;6.42;100.00;100788.78;5014818;28;20231;-73
2023/02/20 10:17:41;;;;;;;5.87;3.27;;;;;;;6.52;100.00;100784.38;5021882;28;20192;-72
2023/02/20 10:20:12;;;;;;;3.33;2.87;;;;;;;6.60;100.00;100782.59;5017422;28;20302;-72
2023/02/20 10:22:49;;;;;;;3.60;2.80;;;;;;;6.70;100.00;100769.56;5012554;28;20209;-73
2023/02/20 10:25:22;;;;;;;3.53;2.90;;;;;;;6.74;100.00;100761.75;5020306;28;20220;-72
2023/02/20 10:27:54;;;;;;;5.70;3.17;;;;;;;6.78;100.00;100747.91;5016067;28;20204;-73
2023/02/20 10:30:27;;;;;;;3.87;3.10;;;;;;;6.80;100.00;100761.69;5015456;28;20665;-73
2023/02/20 10:33:01;;;;;;;3.87;2.53;;;;;;;6.84;100.00;100746.97;5021262;28;20231;-72
2023/02/20 10:35:36;;;;;;;2.47;2.17;;;;;;;6.86;100.00;100727.13;5018698;28;20766;-72
2023/02/20 10:38:07;;;;;;;3.90;2.97;;;;;;;6.93;100.00;100726.19;5016978;28;20203;-72
2023/02/20 10:40:39;;;;;;;4.23;2.80;;;;;;;7.05;100.00;100711.38;5017667;28;20201;-72
2023/02/20 10:43:13;;;;;;;3.60;2.70;;;;;;;7.12;100.00;100719.06;5018690;28;20209;-72
2023/02/20 10:45:48;;;;;;;3.73;2.90;;;;;;;7.19;100.00;100704.31;5016738;28;20234;-72
2023/02/20 10:48:16;;;;;;;3.93;2.83;;;;;;;7.25;100.00;100693.88;5014000;28;20230;-73
2023/02/20 10:50:50;;;;;;;3.40;2.70;;;;;;;7.31;100.00;100695.53;5011140;28;20209;-73
2023/02/20 10:53:26;;;;;;;2.60;2.37;;;;;;;7.35;100.00;100700.69;5017731;28;20197;-73
2023/02/20 10:55:59;;;;;;;3.67;2.77;;;;;;;7.41;100.00;100683.31;5017845;28;20252;-72
2023/02/20 10:58:32;;;;;;;3.23;2.57;;;;;;;7.47;100.00;100685.81;5015612;28;20614;-72
2023/02/20 11:01:03;;;;;;;2.60;2.40;;;;;;;7.53;100.00;100662.41;5016707;28;20285;-72
2023/02/20 11:03:39;;;;;;;2.67;2.43;;;;;;;7.64;100.00;100670.06;5017541;28;20221;-73
2023/02/20 11:06:09;;;;;;;3.07;2.40;;;;;;;7.77;100.00;100682.84;5018847;28;20594;-72
2023/02/20 11:08:35;;;;;;;2.97;2.50;;;;;;;7.88;100.00;100672.31;5020050;28;20221;-73
2023/02/20 11:11:20;;;;;;;4.23;3.07;;;;;;;8.01;100.00;100673.00;5035761;28;20649;-73
2023/02/20 11:13:47;;;;;;;2.60;2.33;;;;;;;8.12;100.00;100683.22;5021699;28;20204;-73
2023/02/20 11:16:23;;;;;;;3.73;2.53;;;;;;;8.28;100.00;100666.50;5020119;28;20223;-73
2023/02/20 11:18:56;;;;;;;3.50;2.00;;;;;;;8.44;100.00;100666.28;5021375;28;20206;-72
2023/02/20 11:21:35;;;;;;;3.30;2.50;;;;;;;8.56;100.00;100676.47;5018319;28;20668;-73
2023/02/20 11:24:18;;;;;;;5.67;3.00;;;;;;;8.71;100.00;100659.78;5030242;28;20212;-73
2023/02/20 11:26:46;;;;;;;3.40;2.23;;;;;;;8.79;100.00;100646.63;5019229;28;20197;-73
2023/02/20 11:29:16;;;;;;;3.13;2.27;;;;;;;8.93;100.00;100670.63;5021813;28;20208;-73
2023/02/20 11:31:43;;;;;;;3.93;2.70;;;;;;;8.95;100.00;100655.84;5017040;28;20267;-72
2023/02/20 11:34:17;;;;;;;3.40;2.77;;;;;;;9.02;100.00;100654.88;5022514;28;20657;-72
2023/02/20 11:36:47;;;;;;;3.77;2.20;;;;;;;9.01;100.00;100640.13;5020128;28;20234;-73
2023/02/20 11:39:20;;;;;;;2.77;2.10;;;;;;;9.02;100.00;100627.97;5030939;28;20437;-73
2023/02/20 11:41:50;;;;;;;4.03;2.57;;;;;;;8.96;100.00;100623.75;5019427;28;20739;-73
2023/02/20 11:44:23;;;;;;;3.80;2.40;;;;;;;9.00;100.00;100617.59;5022797;28;20214;-73
2023/02/20 11:47:20;;;;;;;4.83;2.40;;;;;;;9.02;100.00;100608.06;5017689;28;20209;-72
2023/02/20 11:49:48;;;;;;;2.47;2.00;;;;;;;8.98;100.00;100611.59;5021153;28;20189;-73
2023/02/20 11:52:20;;;;;;;6.07;2.30;;;;;;;8.90;100.00;100619.53;5019135;28;20695;-73